createdAt,value
2023-05-14T00:01:40.953Z,4.25
2023-05-14T00:04:08.210Z,3.10
2023-05-14T00:06:35.462Z,3.33
2023-05-14T00:09:03.006Z,4.03
2023-05-14T00:11:30.221Z,3.38
2023-05-14T00:13:58.758Z,3.45
2023-05-14T00:16:26.146Z,2.88
2023-05-14T00:18:53.460Z,3.60
2023-05-14T00:21:20.778Z,3.83
2023-05-14T00:23:48.019Z,3.45
2023-05-14T00:26:15.414Z,3.42
2023-05-14T00:28:42.626Z,3.20
2023-05-14T00:31:11.217Z,3.25
2023-05-14T00:33:38.482Z,3.83
2023-05-14T00:36:06.028Z,3.47
2023-05-14T00:38:33.256Z,3.28
2023-05-14T00:41:00.521Z,3.92
2023-05-14T00:43:27.832Z,3.30
2023-05-14T00:45:55.242Z,4.40
2023-05-14T00:48:23.779Z,3.75
2023-05-14T00:50:51.060Z,3.50
2023-05-14T00:53:18.773Z,4.13
2023-05-14T00:55:46.074Z,4.05
2023-05-14T00:58:13.706Z,3.10
2023-05-14T01:00:41.233Z,3.28
2023-05-14T01:03:08.784Z,3.60
2023-05-14T01:05:40.387Z,3.30
2023-05-14T01:08:10.438Z,4.18
2023-05-14T01:13:05.529Z,3.13
2023-05-14T01:15:33.116Z,3.40
2023-05-14T01:18:00.721Z,3.13
2023-05-14T01:20:28.014Z,3.10
2023-05-14T01:22:56.527Z,3.60
2023-05-14T01:25:23.780Z,3.78
2023-05-14T01:27:53.809Z,3.30
2023-05-14T01:30:22.773Z,3.67
2023-05-14T01:32:51.936Z,3.60
2023-05-14T01:35:19.313Z,3.42
2023-05-14T01:37:46.495Z,3.28
2023-05-14T01:40:15.343Z,3.60
2023-05-14T01:42:42.552Z,3.72
2023-05-14T01:45:10.409Z,4.05
2023-05-14T01:47:37.654Z,3.92
2023-05-14T01:50:05.382Z,3.20
2023-05-14T01:52:32.595Z,3.70
2023-05-14T01:55:00.024Z,3.28
2023-05-14T01:57:28.842Z,3.13
2023-05-14T01:59:56.031Z,3.28
2023-05-14T02:02:23.279Z,3.38
2023-05-14T02:04:50.498Z,3.33
2023-05-14T02:07:17.755Z,3.45
2023-05-14T02:09:45.010Z,3.95
2023-05-14T02:12:12.249Z,3.60
2023-05-14T02:14:40.833Z,4.55
2023-05-14T02:17:08.277Z,3.70
2023-05-14T02:19:35.580Z,3.33
2023-05-14T02:22:03.129Z,3.05
2023-05-14T02:24:30.342Z,3.15
2023-05-14T02:27:00.038Z,3.67
2023-05-14T02:29:27.273Z,3.47
2023-05-14T02:31:55.933Z,3.47
2023-05-14T02:34:23.285Z,3.42
2023-05-14T02:36:50.520Z,3.53
2023-05-14T02:39:17.726Z,3.80
2023-05-14T02:41:44.969Z,6.57
2023-05-14T02:44:12.220Z,3.10
2023-05-14T02:46:39.480Z,3.50
2023-05-14T02:49:08.154Z,4.45
2023-05-14T02:51:35.421Z,4.88
2023-05-14T02:54:02.680Z,3.50
2023-05-14T02:56:29.906Z,3.15
2023-05-14T02:58:57.142Z,3.55
2023-05-14T03:01:24.770Z,3.40
2023-05-14T03:03:52.550Z,3.40
2023-05-14T03:06:21.088Z,3.45
2023-05-14T03:08:48.320Z,3.10
2023-05-14T03:11:15.514Z,3.45
2023-05-14T03:13:42.736Z,3.42
2023-05-14T03:16:10.114Z,3.05
2023-05-14T03:18:37.434Z,3.55
2023-05-14T03:21:04.723Z,3.88
2023-05-14T03:23:34.973Z,4.28
2023-05-14T03:26:02.373Z,3.33
2023-05-14T03:28:29.615Z,3.50
2023-05-14T03:30:56.873Z,3.30
2023-05-14T03:33:24.116Z,3.60
2023-05-14T03:35:51.473Z,3.83
2023-05-14T03:38:18.672Z,3.50
2023-05-14T03:40:47.198Z,3.60
2023-05-14T03:43:14.436Z,3.28
2023-05-14T03:45:41.657Z,3.45
2023-05-14T03:48:09.197Z,3.60
2023-05-14T03:50:36.469Z,4.22
2023-05-14T03:53:03.691Z,3.58
2023-05-14T03:55:30.887Z,3.67
2023-05-14T03:57:59.395Z,3.25
2023-05-14T04:00:26.829Z,3.60
2023-05-14T04:02:54.280Z,3.63
2023-05-14T04:05:21.616Z,3.75
2023-05-14T04:07:48.841Z,3.30
2023-05-14T04:10:16.236Z,3.30
2023-05-14T04:12:43.444Z,3.85
2023-05-14T04:15:12.315Z,3.97
2023-05-14T04:17:39.534Z,4.00
2023-05-14T04:20:07.572Z,3.63
2023-05-14T04:22:34.798Z,3.40
2023-05-14T04:25:02.036Z,3.13
2023-05-14T04:27:29.330Z,4.30
2023-05-14T04:29:56.573Z,3.13
2023-05-14T04:32:25.583Z,3.25
2023-05-14T04:34:52.832Z,3.53
2023-05-14T04:37:20.107Z,3.78
2023-05-14T04:39:47.317Z,3.80
2023-05-14T04:42:14.530Z,3.50
2023-05-14T04:44:41.759Z,3.55
2023-05-14T04:47:09.146Z,3.92
2023-05-14T04:49:37.698Z,3.40
2023-05-14T04:52:05.430Z,3.58
2023-05-14T04:54:34.843Z,3.78
2023-05-14T04:57:03.167Z,3.83
2023-05-14T04:59:30.382Z,4.05
2023-05-14T05:01:57.577Z,3.13
2023-05-14T05:04:24.772Z,3.35
2023-05-14T05:06:53.274Z,3.47
2023-05-14T05:09:20.491Z,3.30
2023-05-14T05:11:47.707Z,4.57
2023-05-14T05:14:15.097Z,3.70
2023-05-14T05:16:42.371Z,3.40
2023-05-14T05:19:09.678Z,3.20
2023-05-14T05:21:39.121Z,3.13
2023-05-14T05:24:07.967Z,3.72
2023-05-14T05:26:36.671Z,3.22
2023-05-14T05:29:04.038Z,3.58
2023-05-14T05:31:31.412Z,3.50
2023-05-14T05:33:59.406Z,3.13
2023-05-14T05:36:26.626Z,3.20
2023-05-14T05:38:53.898Z,3.35
2023-05-14T05:41:22.437Z,3.53
2023-05-14T05:43:49.658Z,3.70
2023-05-14T05:46:16.905Z,3.78
2023-05-14T05:48:44.198Z,4.78
2023-05-14T05:51:11.600Z,3.80
2023-05-14T05:53:38.823Z,3.25
2023-05-14T05:56:06.722Z,3.15
2023-05-14T05:58:35.317Z,3.63
2023-05-14T06:01:02.546Z,3.65
2023-05-14T06:03:29.750Z,3.50
2023-05-14T06:05:56.964Z,3.60
2023-05-14T06:08:24.143Z,3.70
2023-05-14T06:10:51.370Z,3.40
2023-05-14T06:13:18.588Z,3.85
2023-05-14T06:15:47.098Z,3.55
2023-05-14T06:18:14.314Z,3.40
2023-05-14T06:20:41.584Z,3.03
2023-05-14T06:23:08.822Z,4.22
2023-05-14T06:25:36.026Z,3.35
2023-05-14T06:28:03.402Z,3.45
2023-05-14T06:30:30.660Z,3.38
2023-05-14T06:32:59.235Z,3.58
2023-05-14T06:35:26.474Z,3.85
2023-05-14T06:37:53.699Z,3.40
2023-05-14T06:40:21.389Z,3.53
2023-05-14T06:42:48.701Z,3.17
2023-05-14T06:45:16.052Z,3.63
2023-05-14T06:47:43.278Z,3.75
2023-05-14T06:50:12.542Z,3.50
2023-05-14T06:52:39.792Z,3.50
2023-05-14T06:55:07.502Z,3.33
2023-05-14T06:57:34.905Z,2.90
2023-05-14T07:00:03.725Z,3.60
2023-05-14T07:02:31.223Z,3.05
2023-05-14T07:04:58.444Z,3.30
2023-05-14T07:07:27.030Z,3.25
2023-05-14T07:09:54.216Z,3.33
2023-05-14T07:12:21.439Z,3.22
2023-05-14T07:14:48.653Z,3.35
2023-05-14T07:17:15.910Z,3.10
2023-05-14T07:19:43.154Z,3.05
2023-05-14T07:22:10.366Z,2.78
2023-05-14T07:24:38.866Z,2.78
2023-05-14T07:27:06.277Z,3.35
2023-05-14T07:29:34.916Z,4.78
2023-05-14T07:32:02.130Z,2.80
2023-05-14T07:34:29.311Z,3.53
2023-05-14T07:36:56.495Z,2.90
2023-05-14T07:39:23.686Z,3.00
2023-05-14T07:41:54.592Z,3.00
2023-05-14T07:44:21.832Z,2.72
2023-05-14T07:46:49.040Z,3.00
2023-05-14T07:49:16.225Z,3.03
2023-05-14T07:51:43.472Z,3.00
2023-05-14T07:54:11.230Z,3.05
2023-05-14T07:56:38.433Z,2.63
2023-05-14T07:59:07.931Z,3.05
2023-05-14T08:01:36.357Z,2.55
2023-05-14T08:04:05.101Z,2.55
2023-05-14T08:06:32.350Z,2.90
2023-05-14T08:08:59.562Z,3.10
2023-05-14T08:11:26.945Z,2.88
2023-05-14T08:13:54.255Z,2.88
2023-05-14T08:16:23.463Z,2.65
2023-05-14T08:18:50.738Z,2.60
2023-05-14T08:21:18.047Z,2.80
2023-05-14T08:23:45.432Z,3.10
2023-05-14T08:26:12.620Z,3.10
2023-05-14T08:28:39.801Z,2.90
2023-05-14T08:31:07.041Z,2.63
2023-05-14T08:33:35.598Z,2.40
2023-05-14T08:36:02.785Z,2.50
2023-05-14T08:38:30.090Z,2.58
2023-05-14T08:40:57.805Z,2.60
2023-05-14T08:43:25.886Z,2.75
2023-05-14T08:45:53.210Z,3.25
2023-05-14T08:48:20.553Z,2.70
2023-05-14T08:50:49.616Z,3.08
2023-05-14T08:53:16.856Z,2.60
2023-05-14T08:55:44.146Z,2.38
2023-05-14T08:58:11.341Z,2.40
2023-05-14T09:00:38.520Z,2.58
2023-05-14T09:03:06.690Z,2.42
2023-05-14T09:05:34.074Z,2.83
2023-05-14T09:08:02.601Z,2.72
2023-05-14T09:10:29.802Z,2.60
2023-05-14T09:12:57.027Z,2.65
2023-05-14T09:15:24.282Z,2.22
2023-05-14T09:17:51.580Z,2.65
2023-05-14T09:20:18.799Z,2.58
2023-05-14T09:22:46.028Z,2.45
2023-05-14T09:25:14.554Z,2.47
2023-05-14T09:27:41.776Z,2.88
2023-05-14T09:30:09.453Z,2.60
2023-05-14T09:32:37.318Z,2.45
2023-05-14T09:35:14.658Z,2.60
2023-05-14T09:37:42.559Z,2.63
2023-05-14T09:40:10.362Z,2.55
2023-05-14T09:42:38.922Z,2.60
2023-05-14T09:45:07.610Z,2.33
2023-05-14T09:47:34.975Z,2.38
2023-05-14T09:50:02.352Z,2.70
2023-05-14T09:52:29.559Z,2.70
2023-05-14T09:54:56.913Z,2.60
2023-05-14T09:57:24.096Z,2.70
2023-05-14T09:59:52.636Z,2.55
2023-05-14T10:02:22.935Z,2.70
2023-05-14T10:04:51.319Z,2.60
2023-05-14T10:07:20.749Z,2.35
2023-05-14T10:09:47.933Z,3.10
2023-05-14T10:12:15.188Z,2.70
2023-05-14T10:14:44.356Z,2.60
2023-05-14T10:17:18.345Z,2.60
2023-05-14T10:19:46.842Z,2.35
2023-05-14T10:22:14.037Z,2.55
2023-05-14T10:24:41.417Z,2.50
2023-05-14T10:27:08.677Z,2.30
2023-05-14T10:29:36.424Z,2.67
2023-05-14T10:32:04.704Z,2.45
2023-05-14T10:34:33.544Z,2.47
2023-05-14T10:37:01.385Z,2.50
2023-05-14T10:39:41.368Z,2.53
2023-05-14T10:42:09.059Z,2.40
2023-05-14T10:44:36.264Z,2.60
2023-05-14T10:47:03.907Z,3.05
2023-05-14T10:49:42.858Z,2.60
2023-05-14T10:52:11.650Z,2.63
2023-05-14T10:54:38.942Z,2.50
2023-05-14T10:57:10.844Z,2.50
2023-05-14T10:59:38.202Z,2.38
2023-05-14T11:02:05.927Z,2.50
2023-05-14T11:04:34.526Z,2.60
2023-05-14T11:07:02.099Z,3.15
2023-05-14T11:09:29.300Z,2.60
2023-05-14T11:11:56.571Z,3.10
2023-05-14T11:14:23.794Z,2.40
2023-05-14T11:16:51.015Z,2.67
2023-05-14T11:19:18.328Z,2.67
2023-05-14T11:21:46.998Z,2.30
2023-05-14T11:24:14.255Z,2.88
2023-05-14T11:26:41.601Z,2.60
2023-05-14T11:31:28.720Z,2.78
2023-05-14T11:33:56.075Z,2.45
2023-05-14T11:36:23.352Z,2.70
2023-05-14T11:38:52.373Z,2.80
2023-05-14T11:41:21.541Z,2.50
2023-05-14T11:43:48.928Z,2.70
2023-05-14T11:46:19.316Z,2.92
2023-05-14T11:48:46.661Z,2.67
2023-05-14T11:51:13.884Z,2.60
2023-05-14T11:53:41.128Z,2.65
2023-05-14T11:56:10.052Z,2.40
2023-05-14T11:58:37.375Z,2.70
2023-05-14T12:01:04.682Z,2.60
2023-05-14T12:03:32.001Z,2.50
2023-05-14T12:05:59.439Z,2.67
2023-05-14T12:08:27.067Z,2.33
2023-05-14T12:10:54.279Z,2.60
2023-05-14T12:13:22.757Z,2.83
2023-05-14T12:15:54.689Z,2.70
2023-05-14T12:18:25.072Z,2.90
2023-05-14T12:20:52.872Z,2.45
2023-05-14T12:23:25.690Z,2.83
2023-05-14T12:25:52.953Z,2.70
2023-05-14T12:28:20.218Z,2.70
2023-05-14T12:30:48.719Z,2.67
2023-05-14T12:33:16.163Z,2.42
2023-05-14T12:35:43.390Z,2.55
2023-05-14T12:38:10.690Z,2.30
2023-05-14T12:40:37.945Z,2.72
2023-05-14T12:43:05.156Z,2.60
2023-05-14T12:45:32.488Z,2.80
2023-05-14T12:48:01.074Z,2.75
2023-05-14T12:50:28.366Z,2.60
2023-05-14T12:52:55.715Z,2.53
2023-05-14T12:55:22.937Z,2.65
2023-05-14T12:57:50.205Z,2.50
2023-05-14T13:00:17.680Z,2.40
2023-05-14T13:02:44.953Z,2.40
2023-05-14T13:05:13.633Z,2.58
2023-05-14T13:07:40.934Z,2.90
2023-05-14T13:10:08.746Z,2.72
2023-05-14T13:12:36.010Z,2.50
2023-05-14T13:15:03.298Z,2.50
2023-05-14T13:17:30.656Z,2.70
2023-05-14T13:19:58.011Z,2.85
2023-05-14T13:22:26.567Z,2.75
2023-05-14T13:24:53.745Z,2.50
2023-05-14T13:27:20.947Z,2.50
2023-05-14T13:29:48.161Z,2.58
2023-05-14T13:32:15.390Z,2.70
2023-05-14T13:34:43.882Z,2.88
2023-05-14T13:37:11.218Z,2.67
2023-05-14T13:39:41.086Z,2.85
2023-05-14T13:44:36.075Z,2.75
2023-05-14T13:47:03.376Z,2.80
2023-05-14T13:49:30.672Z,2.60
2023-05-14T13:51:57.927Z,2.70
2023-05-14T13:54:25.239Z,2.90
2023-05-14T13:56:53.750Z,2.58
2023-05-14T13:59:21.108Z,2.90
2023-05-14T14:01:49.757Z,2.92
2023-05-14T14:04:17.652Z,2.63
2023-05-14T14:06:44.882Z,2.95
2023-05-14T14:09:13.396Z,2.83
2023-05-14T14:11:40.905Z,2.80
2023-05-14T14:14:09.467Z,2.90
2023-05-14T14:16:37.074Z,2.80
2023-05-14T14:19:04.557Z,2.72
2023-05-14T14:21:32.607Z,2.60
2023-05-14T14:23:59.828Z,2.70
2023-05-14T14:26:27.738Z,2.80
2023-05-14T14:28:54.958Z,2.72
2023-05-14T14:31:23.500Z,3.03
2023-05-14T14:33:50.788Z,3.08
2023-05-14T14:36:18.008Z,3.10
2023-05-14T14:38:45.251Z,2.80
2023-05-14T14:41:12.492Z,2.80
2023-05-14T14:43:41.091Z,2.75
2023-05-14T14:46:09.728Z,2.53
2023-05-14T14:48:38.488Z,2.55
2023-05-14T14:51:05.873Z,2.95
2023-05-14T14:53:33.133Z,2.80
2023-05-14T14:56:00.983Z,2.67
2023-05-14T14:58:28.444Z,2.85
2023-05-14T15:00:56.036Z,2.72
2023-05-14T15:03:23.545Z,2.80
2023-05-14T15:05:53.286Z,3.00
2023-05-14T15:08:20.796Z,2.75
2023-05-14T15:10:48.074Z,3.08
2023-05-14T15:13:15.403Z,2.80
2023-05-14T15:15:42.775Z,2.90
2023-05-14T15:18:10.167Z,2.90
2023-05-14T15:20:37.406Z,2.88
2023-05-14T15:23:05.953Z,3.28
2023-05-14T15:25:33.207Z,2.85
2023-05-14T15:28:00.420Z,2.67
2023-05-14T15:30:27.660Z,2.97
2023-05-14T15:32:54.948Z,2.95
2023-05-14T15:35:22.461Z,2.63
2023-05-14T15:37:49.926Z,3.13
2023-05-14T15:40:19.558Z,2.78
2023-05-14T15:42:46.938Z,2.75
2023-05-14T15:45:14.279Z,2.92
2023-05-14T15:47:41.603Z,2.88
2023-05-14T15:50:09.190Z,2.70
2023-05-14T15:52:36.740Z,3.25
2023-05-14T15:55:04.364Z,2.63
2023-05-14T15:57:32.870Z,2.95
2023-05-14T16:00:00.073Z,2.83
2023-05-14T16:02:30.174Z,2.83
2023-05-14T16:04:57.540Z,2.90
2023-05-14T16:07:24.779Z,3.08
2023-05-14T16:09:52.075Z,3.08
2023-05-14T16:12:19.297Z,2.80
2023-05-14T16:14:47.815Z,2.90
2023-05-14T16:17:15.021Z,2.70
2023-05-14T16:19:42.267Z,3.10
2023-05-14T16:22:09.526Z,2.80
2023-05-14T16:24:36.747Z,2.97
2023-05-14T16:27:04.452Z,3.60
2023-05-14T16:29:31.700Z,2.80
2023-05-14T16:32:00.469Z,3.22
2023-05-14T16:34:27.807Z,3.03
2023-05-14T16:36:55.027Z,2.85
2023-05-14T16:39:22.234Z,3.00
2023-05-14T16:41:49.409Z,3.10
2023-05-14T16:44:16.644Z,3.30
2023-05-14T16:46:43.956Z,2.90
2023-05-14T16:49:12.482Z,3.30
2023-05-14T16:51:42.976Z,3.33
2023-05-14T16:54:10.411Z,3.28
2023-05-14T16:56:37.693Z,3.33
2023-05-14T16:59:04.893Z,4.38
2023-05-14T17:01:32.626Z,3.35
2023-05-14T17:03:59.872Z,3.10
2023-05-14T17:06:28.623Z,3.45
2023-05-14T17:08:55.853Z,3.22
2023-05-14T17:11:23.170Z,3.00
2023-05-14T17:13:50.378Z,3.03
2023-05-14T17:16:17.676Z,3.42
2023-05-14T17:18:45.656Z,3.55
2023-05-14T17:21:12.963Z,3.50
2023-05-14T17:23:42.336Z,3.50
2023-05-14T17:26:10.980Z,3.28
2023-05-14T17:28:38.295Z,3.58
2023-05-14T17:31:06.340Z,3.22
2023-05-14T17:33:33.723Z,3.40
2023-05-14T17:36:01.187Z,3.22
2023-05-14T17:38:28.444Z,3.97
2023-05-14T17:40:57.053Z,3.58
2023-05-14T17:43:24.249Z,3.67
2023-05-14T17:45:54.524Z,3.30
2023-05-14T17:48:22.170Z,3.20
2023-05-14T17:50:49.381Z,3.67
2023-05-14T17:53:16.573Z,3.22
2023-05-14T17:55:44.083Z,3.35
2023-05-14T17:58:13.342Z,2.90
2023-05-14T18:00:40.661Z,3.35
2023-05-14T18:03:08.565Z,3.50
2023-05-14T18:05:35.860Z,3.60
2023-05-14T18:08:03.248Z,3.17
2023-05-14T18:10:30.489Z,3.53
2023-05-14T18:12:57.727Z,3.95
2023-05-14T18:15:27.240Z,3.53
2023-05-14T18:17:54.645Z,3.50
2023-05-14T18:20:22.030Z,3.53
2023-05-14T18:22:49.285Z,3.10
2023-05-14T18:25:16.645Z,3.17
2023-05-14T18:27:45.206Z,3.38
2023-05-14T18:30:13.575Z,3.42
2023-05-14T18:32:42.236Z,4.32
2023-05-14T18:35:09.892Z,3.20
2023-05-14T18:37:37.168Z,3.70
2023-05-14T18:40:06.808Z,3.40
2023-05-14T18:42:34.138Z,3.25
2023-05-14T18:45:01.393Z,3.40
2023-05-14T18:47:28.691Z,3.70
2023-05-14T18:49:59.421Z,3.63
2023-05-14T18:52:27.038Z,3.22
2023-05-14T18:54:54.678Z,3.58
2023-05-14T18:57:21.956Z,3.38
2023-05-14T18:59:49.187Z,4.57
2023-05-14T19:02:16.467Z,3.28
2023-05-14T19:04:52.293Z,3.40
2023-05-14T19:07:21.785Z,3.58
2023-05-14T19:09:49.061Z,3.80
2023-05-14T19:12:16.380Z,3.40
2023-05-14T19:14:43.624Z,3.50
2023-05-14T19:20:23.304Z,3.75
2023-05-14T19:23:15.445Z,3.50
2023-05-14T19:25:48.798Z,4.00
2023-05-14T19:31:06.150Z,3.55
2023-05-14T19:33:39.369Z,3.53
2023-05-14T19:36:29.766Z,4.13
2023-05-14T19:39:06.398Z,3.17
2023-05-14T19:41:43.767Z,3.80
2023-05-14T19:44:14.872Z,3.53
2023-05-14T19:46:54.989Z,3.70
2023-05-14T19:52:18.000Z,4.85
2023-05-14T19:54:55.493Z,4.72
2023-05-14T19:57:23.642Z,3.53
2023-05-14T19:59:57.881Z,3.30
2023-05-14T20:02:27.202Z,3.42
2023-05-14T20:04:59.826Z,3.30
2023-05-14T20:07:27.028Z,3.03
2023-05-14T20:09:55.549Z,3.58
2023-05-14T20:12:22.729Z,3.00
2023-05-14T20:14:49.946Z,3.30
2023-05-14T20:17:17.786Z,3.65
2023-05-14T20:19:45.085Z,3.53
2023-05-14T20:22:12.385Z,3.60
2023-05-14T20:24:40.930Z,3.33
2023-05-14T20:27:09.470Z,4.22
2023-05-14T20:29:36.795Z,3.38
2023-05-14T20:32:04.023Z,3.60
2023-05-14T20:34:31.221Z,3.95
2023-05-14T20:36:58.425Z,3.85
2023-05-14T20:39:25.661Z,5.00
2023-05-14T20:41:52.848Z,3.47
2023-05-14T20:44:21.367Z,3.40
2023-05-14T20:46:48.761Z,3.25
2023-05-14T20:49:16.101Z,3.30
2023-05-14T20:51:43.340Z,3.47
2023-05-14T20:54:10.628Z,4.32
2023-05-14T20:56:37.850Z,3.83
2023-05-14T20:59:05.030Z,3.40
2023-05-14T21:01:33.637Z,3.55
2023-05-14T21:04:01.075Z,3.13
2023-05-14T21:06:28.450Z,3.50
2023-05-14T21:08:55.616Z,3.88
2023-05-14T21:11:22.957Z,3.83
2023-05-14T21:13:50.222Z,3.28
2023-05-14T21:16:17.466Z,3.10
2023-05-14T21:18:46.371Z,3.13
2023-05-14T21:21:13.629Z,3.63
2023-05-14T21:23:40.801Z,4.53
2023-05-14T21:26:07.992Z,3.67
2023-05-14T21:28:35.181Z,3.67
2023-05-14T21:31:02.373Z,3.65
2023-05-14T21:33:29.607Z,3.75
2023-05-14T21:35:58.121Z,4.60
2023-05-14T21:38:25.710Z,3.45
2023-05-14T21:40:52.959Z,3.53
2023-05-14T21:43:20.141Z,3.92
2023-05-14T21:45:47.763Z,3.28
2023-05-14T21:48:15.153Z,3.65
2023-05-14T21:50:42.459Z,3.50
2023-05-14T21:53:11.024Z,3.28
2023-05-14T21:55:38.206Z,3.63
2023-05-14T21:58:05.435Z,3.40
2023-05-14T22:00:32.654Z,3.45
2023-05-14T22:03:00.010Z,3.63
2023-05-14T22:05:27.617Z,3.70
2023-05-14T22:07:55.075Z,3.60
2023-05-14T22:10:23.631Z,3.65
2023-05-14T22:12:50.847Z,3.67
2023-05-14T22:15:18.056Z,3.35
2023-05-14T22:17:46.729Z,3.47
2023-05-14T22:20:14.048Z,3.63
2023-05-14T22:22:41.241Z,4.38
2023-05-14T22:25:08.685Z,4.45
2023-05-14T22:27:37.186Z,3.95
2023-05-14T22:30:04.758Z,3.40
2023-05-14T22:32:31.990Z,3.33
2023-05-14T22:34:59.262Z,3.10
2023-05-14T22:37:26.455Z,3.38
2023-05-14T22:39:53.721Z,4.47
2023-05-14T22:42:21.011Z,3.65
2023-05-14T22:44:49.511Z,3.60
2023-05-14T22:47:16.922Z,3.20
2023-05-14T22:49:44.120Z,3.47
2023-05-14T22:52:11.310Z,3.15
2023-05-14T22:54:38.502Z,4.25
2023-05-14T22:57:06.573Z,3.40
2023-05-14T22:59:33.817Z,3.58
2023-05-14T23:02:02.375Z,3.30
2023-05-14T23:04:29.615Z,3.22
2023-05-14T23:06:56.924Z,3.17
2023-05-14T23:09:24.093Z,3.88
2023-05-14T23:11:51.292Z,3.30
2023-05-14T23:14:18.560Z,3.45
2023-05-14T23:16:45.763Z,3.38
2023-05-14T23:19:14.448Z,3.30
2023-05-14T23:21:41.718Z,3.47
2023-05-14T23:24:09.121Z,3.38
2023-05-14T23:26:36.309Z,2.85
2023-05-14T23:29:03.484Z,3.30
2023-05-14T23:31:30.694Z,3.15
2023-05-14T23:33:57.974Z,3.42
2023-05-14T23:36:26.560Z,3.75
2023-05-14T23:38:53.764Z,3.13
2023-05-14T23:41:21.681Z,3.40
2023-05-14T23:43:49.649Z,3.72
2023-05-14T23:46:16.956Z,3.25
2023-05-14T23:48:44.212Z,3.20
2023-05-14T23:51:11.418Z,3.20
2023-05-14T23:53:39.934Z,3.30
2023-05-14T23:56:07.412Z,3.40
2023-05-14T23:58:34.619Z,3.75
